Time,TemperatureF,DewpointF,PressureIn,WindDirection,WindDirectionDegrees,WindSpeedMPH,WindSpeedGustMPH,Humidity,HourlyPrecipIn,Conditions,Clouds,dailyrainin,SoftwareType,DateUTC
2013-01-06 00:01:00,44.4,36.3,29.96,ESE,112,5.4,5.4,73,0.00,,,0.00,VWS V14.01,2013-01-06 08:01:00,
2013-01-06 00:06:00,44.2,36.2,29.96,NNE,30,4.0,4.0,73,0.00,,,0.00,VWS V14.01,2013-01-06 08:06:00,
2013-01-06 00:11:00,44.2,36.2,29.96,North,2,3.1,5.8,73,0.00,,,0.00,VWS V14.01,2013-01-06 08:11:00,
2013-01-06 00:16:00,44.2,36.2,29.96,North,353,7.6,7.6,73,0.00,,,0.00,VWS V14.01,2013-01-06 08:16:00,
2013-01-06 00:21:00,44.1,36.0,29.96,ESE,103,4.0,5.8,73,0.00,,,0.00,VWS V14.01,2013-01-06 08:21:00,
2013-01-06 00:26:00,44.1,36.0,29.93,NNE,27,4.9,5.4,73,0.00,,,0.00,VWS V14.01,2013-01-06 08:26:00,
2013-01-06 00:31:00,44.1,36.0,29.93,ESE,118,3.6,5.8,73,0.00,,,0.00,VWS V14.01,2013-01-06 08:31:00,
2013-01-06 00:36:00,44.1,36.0,29.93,NNE,23,3.1,4.9,73,0.00,,,0.00,VWS V14.01,2013-01-06 08:36:00,
2013-01-06 00:41:00,43.9,35.8,29.93,East,99,3.1,8.1,73,0.04,,,0.04,VWS V14.01,2013-01-06 08:41:00,
2013-01-06 00:46:00,43.9,35.8,29.93,ENE,69,2.7,5.4,73,0.04,,,0.04,VWS V14.01,2013-01-06 08:46:00,
2013-01-06 00:51:00,43.9,35.8,29.93,North,357,3.6,7.6,73,0.04,,,0.04,VWS V14.01,2013-01-06 08:51:00,
2013-01-06 00:56:00,43.9,35.8,29.93,NE,51,2.7,8.3,73,0.04,,,0.04,VWS V14.01,2013-01-06 08:56:00,
2013-01-06 01:01:00,43.9,35.8,29.93,ESE,122,7.2,7.2,73,0.04,,,0.04,VWS V14.01,2013-01-06 09:01:00,
2013-01-06 01:06:00,43.9,35.8,29.93,NNE,21,3.6,6.7,73,0.04,,,0.04,VWS V14.01,2013-01-06 09:06:00,
2013-01-06 01:11:00,43.9,35.8,29.93,North,353,4.0,8.7,73,0.04,,,0.04,VWS V14.01,2013-01-06 09:11:00,
2013-01-06 01:16:00,43.9,36.1,29.93,East,92,4.0,8.7,74,0.04,,,0.04,VWS V14.01,2013-01-06 09:16:00,
2013-01-06 01:21:00,43.9,35.8,29.93,ENE,69,3.6,6.3,73,0.04,,,0.04,VWS V14.01,2013-01-06 09:21:00,
2013-01-06 01:26:00,43.9,36.1,29.93,ESE,118,6.7,6.7,74,0.04,,,0.04,VWS V14.01,2013-01-06 09:26:00,
2013-01-06 01:31:00,43.9,36.1,29.93,North,4,4.0,4.9,74,0.04,,,0.04,VWS V14.01,2013-01-06 09:31:00,
2013-01-06 01:36:00,43.9,36.1,29.93,ENE,62,4.9,7.2,74,0.04,,,0.04,VWS V14.01,2013-01-06 09:36:00,
2013-01-06 01:41:00,43.9,36.1,29.93,ESE,108,5.4,5.4,74,0.00,,,0.04,VWS V14.01,2013-01-06 09:41:00,
2013-01-06 01:46:00,43.9,36.1,29.93,NE,37,5.4,6.3,74,0.00,,,0.04,VWS V14.01,2013-01-06 09:46:00,
2013-01-06 01:51:00,43.9,36.1,29.93,ESE,103,4.0,4.0,74,0.00,,,0.04,VWS V14.01,2013-01-06 09:51:00,
2013-01-06 01:56:00,43.9,36.1,29.93,ENE,69,3.1,5.4,74,0.00,,,0.04,VWS V14.01,2013-01-06 09:56:00,
2013-01-06 02:01:00,43.9,36.1,29.93,North,0,2.7,3.6,74,0.00,,,0.04,VWS V14.01,2013-01-06 10:01:00,
2013-01-06 02:06:00,44.1,36.3,29.93,SE,127,5.8,11.0,74,0.00,,,0.04,VWS V14.01,2013-01-06 10:06:00,
2013-01-06 02:11:00,44.1,36.7,29.93,NNE,21,3.1,4.0,75,0.00,,,0.04,VWS V14.01,2013-01-06 10:11:00,
2013-01-06 02:16:00,44.1,36.7,29.93,East,88,5.4,5.4,75,0.00,,,0.04,VWS V14.01,2013-01-06 10:16:00,
2013-01-06 02:21:00,44.1,36.7,29.93,NNE,24,3.1,3.1,75,0.00,,,0.04,VWS V14.01,2013-01-06 10:21:00,
2013-01-06 02:26:00,44.1,36.7,29.93,NNE,30,3.1,8.7,75,0.00,,,0.04,VWS V14.01,2013-01-06 10:26:00,
2013-01-06 02:31:00,44.1,36.7,29.93,ENE,68,3.6,3.6,75,0.00,,,0.04,VWS V14.01,2013-01-06 10:31:00,
2013-01-06 02:36:00,44.2,37.2,29.93,ENE,58,6.3,7.6,76,0.00,,,0.04,VWS V14.01,2013-01-06 10:36:00,
2013-01-06 02:41:00,44.2,37.2,29.93,NNE,29,5.8,5.8,76,0.00,,,0.04,VWS V14.01,2013-01-06 10:41:00,
2013-01-06 02:46:00,44.2,37.2,29.93,NE,51,7.6,7.6,76,0.00,,,0.04,VWS V14.01,2013-01-06 10:46:00,
2013-01-06 02:51:00,44.4,37.3,29.93,ESE,109,5.4,10.1,76,0.00,,,0.04,VWS V14.01,2013-01-06 10:51:00,
2013-01-06 02:56:00,44.4,37.3,29.93,NE,50,3.6,3.6,76,0.00,,,0.04,VWS V14.01,2013-01-06 10:56:00,
2013-01-06 03:01:00,44.4,37.3,29.93,NE,34,3.6,3.6,76,0.00,,,0.04,VWS V14.01,2013-01-06 11:01:00,
2013-01-06 03:06:00,44.6,37.5,29.93,ESE,104,4.9,6.7,76,0.00,,,0.04,VWS V14.01,2013-01-06 11:06:00,
2013-01-06 03:11:00,44.6,37.5,29.93,NE,41,9.6,9.6,76,0.00,,,0.04,VWS V14.01,2013-01-06 11:11:00,
2013-01-06 03:16:00,44.6,37.5,29.93,NNE,31,6.7,11.0,76,0.00,,,0.04,VWS V14.01,2013-01-06 11:16:00,
2013-01-06 03:21:00,44.8,37.7,29.93,NE,43,4.9,8.3,76,0.00,,,0.04,VWS V14.01,2013-01-06 11:21:00,
2013-01-06 03:26:00,44.8,37.7,29.93,North,4,9.6,9.6,76,0.00,,,0.04,VWS V14.01,2013-01-06 11:26:00,
2013-01-06 03:31:00,44.8,37.7,29.93,ENE,60,4.9,4.9,76,0.00,,,0.04,VWS V14.01,2013-01-06 11:31:00,
2013-01-06 03:36:00,44.8,37.7,29.93,North,9,2.7,2.7,76,0.00,,,0.04,VWS V14.01,2013-01-06 11:36:00,
2013-01-06 03:41:00,44.8,37.7,29.93,NE,35,3.1,4.0,76,0.00,,,0.04,VWS V14.01,2013-01-06 11:41:00,
2013-01-06 03:46:00,45.0,37.9,29.93,NNE,31,4.9,5.8,76,0.00,,,0.04,VWS V14.01,2013-01-06 11:46:00,
2013-01-06 03:51:00,45.0,37.9,29.93,North,3,8.3,8.7,76,0.00,,,0.04,VWS V14.01,2013-01-06 11:51:00,
2013-01-06 03:56:00,45.1,38.0,29.93,North,3,4.9,8.3,76,0.00,,,0.04,VWS V14.01,2013-01-06 11:56:00,
2013-01-06 04:01:00,45.1,37.7,29.93,North,7,3.1,7.2,75,0.00,,,0.04,VWS V14.01,2013-01-06 12:01:00,
2013-01-06 04:06:00,45.1,37.7,29.93,NNE,25,5.4,7.2,75,0.00,,,0.04,VWS V14.01,2013-01-06 12:06:00,
2013-01-06 04:11:00,45.1,37.7,29.93,SE,124,4.0,4.0,75,0.00,,,0.04,VWS V14.01,2013-01-06 12:11:00,
2013-01-06 04:16:00,45.1,37.7,29.93,NNE,26,2.7,5.8,75,0.00,,,0.04,VWS V14.01,2013-01-06 12:16:00,
2013-01-06 04:21:00,45.1,37.4,29.93,NE,42,2.7,4.9,74,0.00,,,0.04,VWS V14.01,2013-01-06 12:21:00,
2013-01-06 04:26:00,45.1,37.4,29.93,ESE,111,3.6,4.9,74,0.00,,,0.04,VWS V14.01,2013-01-06 12:26:00,
2013-01-06 04:31:00,45.1,37.4,29.93,North,0,0.0,3.1,74,0.00,,,0.04,VWS V14.01,2013-01-06 12:31:00,
2013-01-06 04:36:00,45.1,37.4,29.93,SE,135,0.0,4.0,74,0.00,,,0.04,VWS V14.01,2013-01-06 12:36:00,
2013-01-06 04:41:00,45.1,37.4,29.96,NE,35,0.0,0.0,74,0.00,,,0.04,VWS V14.01,2013-01-06 12:41:00,
2013-01-06 04:46:00,45.3,37.5,29.96,WNW,287,2.2,3.6,74,0.00,,,0.04,VWS V14.01,2013-01-06 12:46:00,
2013-01-06 04:51:00,45.3,37.5,29.96,WNW,284,0.0,2.2,74,0.00,,,0.04,VWS V14.01,2013-01-06 12:51:00,
2013-01-06 04:56:00,45.3,37.5,29.96,North,349,3.6,3.6,74,0.00,,,0.04,VWS V14.01,2013-01-06 12:56:00,
2013-01-06 05:02:00,45.3,37.5,29.96,North,3,4.0,4.0,74,0.00,,,0.04,VWS V14.01,2013-01-06 13:02:00,
2013-01-06 05:06:00,45.1,37.4,29.96,WNW,299,3.6,3.6,74,0.00,,,0.04,VWS V14.01,2013-01-06 13:06:00,
2013-01-06 05:12:00,45.1,37.4,29.96,North,353,0.0,3.1,74,0.00,,,0.04,VWS V14.01,2013-01-06 13:12:00,
2013-01-06 05:17:00,45.1,37.4,29.96,NW,322,0.0,2.2,74,0.00,,,0.04,VWS V14.01,2013-01-06 13:17:00,
2013-01-06 05:22:00,45.1,37.4,29.96,NW,322,0.0,0.0,74,0.00,,,0.04,VWS V14.01,2013-01-06 13:22:00,
2013-01-06 05:27:00,45.1,37.4,29.96,North,349,0.0,2.7,74,0.00,,,0.04,VWS V14.01,2013-01-06 13:27:00,
2013-01-06 05:32:00,45.1,37.4,29.96,North,10,0.0,3.1,74,0.00,,,0.04,VWS V14.01,2013-01-06 13:32:00,
2013-01-06 05:37:00,45.1,37.4,29.96,NW,310,0.0,0.0,74,0.00,,,0.04,VWS V14.01,2013-01-06 13:37:00,
2013-01-06 05:42:00,45.1,37.4,29.96,WNW,291,0.0,2.2,74,0.00,,,0.04,VWS V14.01,2013-01-06 13:42:00,
2013-01-06 05:47:00,45.1,37.4,29.96,NNW,348,4.0,4.0,74,0.00,,,0.04,VWS V14.01,2013-01-06 13:47:00,
2013-01-06 05:52:00,45.1,37.4,29.96,NNW,335,0.0,2.7,74,0.00,,,0.04,VWS V14.01,2013-01-06 13:52:00,
2013-01-06 05:57:00,45.1,37.4,29.96,West,269,2.7,4.0,74,0.00,,,0.04,VWS V14.01,2013-01-06 13:57:00,
2013-01-06 06:02:00,45.1,37.4,29.96,North,5,0.0,3.6,74,0.00,,,0.04,VWS V14.01,2013-01-06 14:02:00,
2013-01-06 06:07:00,45.3,37.5,29.96,NNW,344,0.0,0.0,74,0.00,,,0.04,VWS V14.01,2013-01-06 14:07:00,
2013-01-06 06:12:00,45.3,37.5,29.99,North,4,3.1,3.1,74,0.00,,,0.04,VWS V14.01,2013-01-06 14:12:00,
2013-01-06 06:17:00,45.3,37.5,29.99,NNW,331,0.0,2.7,74,0.00,,,0.04,VWS V14.01,2013-01-06 14:17:00,
2013-01-06 06:22:00,45.3,37.5,29.99,North,8,3.6,6.3,74,0.00,,,0.04,VWS V14.01,2013-01-06 14:22:00,
2013-01-06 06:27:00,45.3,37.2,29.99,North,0,2.7,2.7,73,0.00,,,0.04,VWS V14.01,2013-01-06 14:27:00,
2013-01-06 06:32:00,45.3,37.2,29.99,NNE,13,2.7,4.9,73,0.00,,,0.04,VWS V14.01,2013-01-06 14:32:00,
2013-01-06 06:37:00,45.1,37.0,29.99,NNE,23,3.1,3.1,73,0.00,,,0.04,VWS V14.01,2013-01-06 14:37:00,
2013-01-06 06:42:00,45.1,37.0,30.02,WNW,295,0.0,2.2,73,0.00,,,0.04,VWS V14.01,2013-01-06 14:42:00,
2013-01-06 06:47:00,45.1,37.0,30.02,NNW,329,3.1,3.1,73,0.00,,,0.04,VWS V14.01,2013-01-06 14:47:00,
2013-01-06 06:52:00,45.1,37.0,30.02,North,2,0.0,0.0,73,0.00,,,0.04,VWS V14.01,2013-01-06 14:52:00,
2013-01-06 06:57:00,45.1,37.0,29.99,NNE,20,0.0,0.0,73,0.00,,,0.04,VWS V14.01,2013-01-06 14:57:00,
2013-01-06 07:02:00,45.1,37.0,29.99,North,357,5.4,5.4,73,0.00,,,0.04,VWS V14.01,2013-01-06 15:02:00,
2013-01-06 07:07:00,45.0,36.8,29.99,North,9,3.6,3.6,73,0.00,,,0.04,VWS V14.01,2013-01-06 15:07:00,
2013-01-06 07:12:00,45.0,36.8,29.99,North,357,2.2,2.2,73,0.00,,,0.04,VWS V14.01,2013-01-06 15:12:00,
2013-01-06 07:17:00,44.8,36.7,29.99,NNE,18,4.9,4.9,73,0.00,,,0.04,VWS V14.01,2013-01-06 15:17:00,
2013-01-06 07:22:00,45.0,36.8,29.99,North,9,2.2,4.0,73,0.00,,,0.04,VWS V14.01,2013-01-06 15:22:00,
2013-01-06 07:27:00,44.8,36.7,30.02,NW,304,3.6,3.6,73,0.00,,,0.04,VWS V14.01,2013-01-06 15:27:00,
2013-01-06 07:32:00,45.0,36.8,30.02,NNE,17,2.2,2.2,73,0.00,,,0.04,VWS V14.01,2013-01-06 15:32:00,
2013-01-06 07:37:00,44.8,36.7,30.02,WNW,300,3.6,5.4,73,0.00,,,0.04,VWS V14.01,2013-01-06 15:37:00,
2013-01-06 07:42:00,45.0,36.8,29.99,West,260,3.1,3.1,73,0.00,,,0.04,VWS V14.01,2013-01-06 15:42:00,
2013-01-06 07:47:00,45.0,36.8,29.99,North,357,0.0,0.0,73,0.00,,,0.04,VWS V14.01,2013-01-06 15:47:00,
2013-01-06 07:52:00,45.0,36.8,29.99,West,262,0.0,0.0,73,0.00,,,0.04,VWS V14.01,2013-01-06 15:52:00,
2013-01-06 07:57:00,45.0,36.8,30.02,WNW,288,3.6,3.6,73,0.00,,,0.04,VWS V14.01,2013-01-06 15:57:00,
2013-01-06 08:02:00,45.0,36.8,30.02,NNW,345,0.0,2.2,73,0.00,,,0.04,VWS V14.01,2013-01-06 16:02:00,
2013-01-06 08:07:00,45.0,36.8,30.02,NE,44,4.0,4.0,73,0.00,,,0.04,VWS V14.01,2013-01-06 16:07:00,
2013-01-06 08:12:00,45.0,36.8,30.02,NE,52,0.0,0.0,73,0.00,,,0.04,VWS V14.01,2013-01-06 16:12:00,
2013-01-06 08:17:00,45.0,36.8,30.02,NE,52,0.0,0.0,73,0.00,,,0.04,VWS V14.01,2013-01-06 16:17:00,
2013-01-06 08:22:00,45.1,37.0,30.02,NE,52,0.0,0.0,73,0.00,,,0.04,VWS V14.01,2013-01-06 16:22:00,
2013-01-06 08:27:00,45.1,37.0,30.02,NE,52,0.0,0.0,73,0.00,,,0.04,VWS V14.01,2013-01-06 16:27:00,
2013-01-06 08:32:00,45.3,37.2,30.02,NE,52,0.0,0.0,73,0.00,,,0.04,VWS V14.01,2013-01-06 16:32:00,
2013-01-06 08:37:00,45.3,37.2,30.02,North,6,2.7,4.0,73,0.00,,,0.04,VWS V14.01,2013-01-06 16:37:00,
2013-01-06 08:42:00,45.1,37.0,30.02,North,349,0.0,2.2,73,0.00,,,0.04,VWS V14.01,2013-01-06 16:42:00,
2013-01-06 08:47:00,45.3,37.2,30.02,North,0,0.0,2.2,73,0.00,,,0.04,VWS V14.01,2013-01-06 16:47:00,
2013-01-06 08:52:00,45.3,37.2,30.02,North,0,0.0,0.0,73,0.00,,,0.04,VWS V14.01,2013-01-06 16:52:00,
2013-01-06 08:58:00,45.1,36.7,30.05,North,5,0.0,0.0,72,0.00,,,0.04,VWS V14.01,2013-01-06 16:58:00,
2013-01-06 09:03:00,45.3,37.2,30.05,North,5,0.0,0.0,73,0.00,,,0.04,VWS V14.01,2013-01-06 17:03:00,
2013-01-06 09:08:00,45.3,37.2,30.05,North,353,0.0,0.0,73,0.00,,,0.04,VWS V14.01,2013-01-06 17:08:00,
2013-01-06 09:13:00,45.3,37.2,30.05,North,0,2.7,3.6,73,0.00,,,0.04,VWS V14.01,2013-01-06 17:13:00,
2013-01-06 09:18:00,45.3,37.2,30.05,North,4,2.2,4.9,73,0.00,,,0.04,VWS V14.01,2013-01-06 17:18:00,
2013-01-06 09:23:00,45.5,37.0,30.05,North,3,2.7,4.0,72,0.00,,,0.04,VWS V14.01,2013-01-06 17:23:00,
2013-01-06 09:28:00,45.5,37.0,30.05,NNE,12,3.1,3.6,72,0.00,,,0.04,VWS V14.01,2013-01-06 17:28:00,
2013-01-06 09:33:00,45.5,37.0,30.05,North,7,3.1,3.1,72,0.00,,,0.04,VWS V14.01,2013-01-06 17:33:00,
2013-01-06 09:38:00,45.7,37.2,30.05,NNW,341,0.0,0.0,72,0.00,,,0.04,VWS V14.01,2013-01-06 17:38:00,
2013-01-06 09:43:00,45.9,37.4,30.05,North,3,0.0,0.0,72,0.00,,,0.04,VWS V14.01,2013-01-06 17:43:00,
2013-01-06 09:48:00,45.9,37.4,30.05,North,0,3.6,5.4,72,0.00,,,0.04,VWS V14.01,2013-01-06 17:48:00,
2013-01-06 09:53:00,46.0,37.5,30.05,NNW,337,2.7,2.7,72,0.00,,,0.04,VWS V14.01,2013-01-06 17:53:00,
2013-01-06 09:58:00,46.0,37.5,30.05,North,353,0.0,2.2,72,0.00,,,0.04,VWS V14.01,2013-01-06 17:58:00,
2013-01-06 10:03:00,46.2,38.1,30.05,North,353,0.0,2.2,73,0.00,,,0.04,VWS V14.01,2013-01-06 18:03:00,
2013-01-06 10:08:00,46.2,37.7,30.05,NNW,335,0.0,3.6,72,0.00,,,0.04,VWS V14.01,2013-01-06 18:08:00,
2013-01-06 10:13:00,46.4,37.9,30.05,North,11,0.0,3.6,72,0.00,,,0.04,VWS V14.01,2013-01-06 18:13:00,
2013-01-06 10:18:00,46.4,37.5,30.05,North,1,3.1,3.1,71,0.00,,,0.04,VWS V14.01,2013-01-06 18:18:00,
2013-01-06 10:23:00,46.4,37.5,30.05,North,8,2.7,2.7,71,0.00,,,0.04,VWS V14.01,2013-01-06 18:23:00,
2013-01-06 10:28:00,46.6,37.7,30.08,NW,309,2.7,2.7,71,0.00,,,0.04,VWS V14.01,2013-01-06 18:28:00,
2013-01-06 10:33:00,46.6,37.7,30.08,NW,309,0.0,0.0,71,0.00,,,0.04,VWS V14.01,2013-01-06 18:33:00,
2013-01-06 10:38:00,46.6,37.7,30.08,NE,45,0.0,0.0,71,0.00,,,0.04,VWS V14.01,2013-01-06 18:38:00,
2013-01-06 10:43:00,46.8,37.9,30.05,West,273,0.0,0.0,71,0.00,,,0.04,VWS V14.01,2013-01-06 18:43:00,
2013-01-06 10:48:00,46.9,38.4,30.05,West,273,0.0,0.0,72,0.00,,,0.04,VWS V14.01,2013-01-06 18:48:00,
2013-01-06 10:53:00,47.1,38.2,30.05,NW,307,0.0,0.0,71,0.00,,,0.04,VWS V14.01,2013-01-06 18:53:00,
2013-01-06 10:58:00,47.1,38.2,30.05,NW,317,0.0,0.0,71,0.00,,,0.04,VWS V14.01,2013-01-06 18:58:00,
2013-01-06 11:03:00,47.1,38.2,30.05,NW,317,0.0,0.0,71,0.00,,,0.04,VWS V14.01,2013-01-06 19:03:00,
2013-01-06 11:08:00,47.1,38.2,30.05,NW,317,0.0,0.0,71,0.00,,,0.04,VWS V14.01,2013-01-06 19:08:00,
2013-01-06 11:13:00,47.1,37.8,30.05,WNW,296,0.0,2.2,70,0.00,,,0.04,VWS V14.01,2013-01-06 19:13:00,
2013-01-06 11:18:00,47.1,37.8,30.05,WNW,296,0.0,0.0,70,0.00,,,0.04,VWS V14.01,2013-01-06 19:18:00,
2013-01-06 11:23:00,47.1,37.8,30.05,North,2,2.2,2.2,70,0.00,,,0.04,VWS V14.01,2013-01-06 19:23:00,
2013-01-06 11:28:00,47.1,37.5,30.05,NE,41,0.0,0.0,69,0.00,,,0.04,VWS V14.01,2013-01-06 19:28:00,
2013-01-06 11:33:00,47.1,37.5,30.05,NW,308,0.0,0.0,69,0.00,,,0.04,VWS V14.01,2013-01-06 19:33:00,
2013-01-06 11:38:00,47.3,38.0,30.05,NW,308,0.0,0.0,70,0.00,,,0.04,VWS V14.01,2013-01-06 19:38:00,
2013-01-06 11:43:00,47.5,38.2,30.05,NW,308,0.0,0.0,70,0.00,,,0.04,VWS V14.01,2013-01-06 19:43:00,
2013-01-06 11:48:00,47.5,38.2,30.05,NW,304,3.1,3.1,70,0.00,,,0.04,VWS V14.01,2013-01-06 19:48:00,
2013-01-06 11:53:00,47.7,38.0,30.02,NNW,329,2.2,2.2,69,0.00,,,0.04,VWS V14.01,2013-01-06 19:53:00,
2013-01-06 11:58:00,47.8,38.2,30.02,NNW,329,0.0,2.7,69,0.00,,,0.04,VWS V14.01,2013-01-06 19:58:00,
2013-01-06 12:03:00,47.8,37.8,30.02,North,357,3.6,4.9,68,0.00,,,0.04,VWS V14.01,2013-01-06 20:03:00,
2013-01-06 12:09:00,47.8,36.7,30.05,North,7,2.2,2.2,65,0.00,,,0.04,VWS V14.01,2013-01-06 20:09:00,
2013-01-06 12:11:00,47.7,35.7,30.05,NE,39,2.7,4.9,63,0.00,,,0.04,VWS V14.01,2013-01-06 20:11:00,
2013-01-06 12:13:00,47.7,35.3,30.05,NE,39,0.0,0.0,62,0.00,,,0.04,VWS V14.01,2013-01-06 20:13:00,
2013-01-06 12:18:00,47.8,35.1,30.05,North,0,0.0,0.0,61,0.00,,,0.04,VWS V14.01,2013-01-06 20:18:00,
2013-01-06 12:23:00,47.8,34.2,30.05,NNW,334,2.7,2.7,59,0.00,,,0.04,VWS V14.01,2013-01-06 20:23:00,
2013-01-06 12:28:00,48.0,34.4,30.05,NNW,333,3.6,3.6,59,0.00,,,0.04,VWS V14.01,2013-01-06 20:28:00,
2013-01-06 12:33:00,48.0,34.0,30.05,NNW,338,3.1,3.1,58,0.00,,,0.04,VWS V14.01,2013-01-06 20:33:00,
2013-01-06 12:38:00,47.8,32.5,30.05,NW,311,0.0,2.7,55,0.00,,,0.04,VWS V14.01,2013-01-06 20:38:00,
2013-01-06 12:43:00,48.0,32.2,30.02,WNW,302,0.0,0.0,54,0.00,,,0.04,VWS V14.01,2013-01-06 20:43:00,
2013-01-06 12:48:00,48.2,31.4,30.02,WNW,285,2.2,2.7,52,0.00,,,0.04,VWS V14.01,2013-01-06 20:48:00,
2013-01-06 12:53:00,48.0,29.3,30.02,NNW,337,0.0,3.6,48,0.00,,,0.04,VWS V14.01,2013-01-06 20:53:00,
2013-01-06 12:58:00,48.0,28.8,30.02,North,353,2.7,4.0,47,0.00,,,0.04,VWS V14.01,2013-01-06 20:58:00,
2013-01-06 13:00:00,47.8,27.5,30.02,NNE,18,5.8,5.8,45,0.00,,,0.04,VWS V14.01,2013-01-06 21:00:00,
2013-01-06 13:05:00,47.8,27.0,30.02,North,1,0.0,2.7,44,0.00,,,0.04,VWS V14.01,2013-01-06 21:05:00,
2013-01-06 13:10:00,48.0,26.6,30.02,NNE,14,0.0,0.0,43,0.00,,,0.04,VWS V14.01,2013-01-06 21:10:00,
2013-01-06 13:15:00,48.2,25.6,30.02,North,2,2.2,4.0,41,0.00,,,0.04,VWS V14.01,2013-01-06 21:15:00,
2013-01-06 13:20:00,48.0,24.9,30.02,North,7,2.7,2.7,40,0.00,,,0.04,VWS V14.01,2013-01-06 21:20:00,
2013-01-06 13:25:00,48.2,25.0,30.02,ENE,62,2.2,2.7,40,0.00,,,0.04,VWS V14.01,2013-01-06 21:25:00,
2013-01-06 13:30:00,48.2,24.4,30.02,NE,52,0.0,4.9,39,0.00,,,0.04,VWS V14.01,2013-01-06 21:30:00,
2013-01-06 13:35:00,48.0,23.6,30.02,NW,319,0.0,3.6,38,0.00,,,0.04,VWS V14.01,2013-01-06 21:35:00,
2013-01-06 13:40:00,47.8,23.5,30.02,NE,44,4.0,4.0,38,0.00,,,0.04,VWS V14.01,2013-01-06 21:40:00,
2013-01-06 13:45:00,48.0,23.6,30.02,NNE,12,0.0,0.0,38,0.00,,,0.04,VWS V14.01,2013-01-06 21:45:00,
2013-01-06 13:50:00,48.0,23.6,30.02,North,8,0.0,3.1,38,0.00,,,0.04,VWS V14.01,2013-01-06 21:50:00,
2013-01-06 13:55:00,48.0,23.6,30.02,NNW,328,0.0,0.0,38,0.00,,,0.04,VWS V14.01,2013-01-06 21:55:00,
2013-01-06 14:00:00,48.2,23.2,30.02,NW,319,2.2,3.1,37,0.00,,,0.04,VWS V14.01,2013-01-06 22:00:00,
2013-01-06 14:05:00,48.2,23.2,30.02,North,0,3.1,3.1,37,0.00,,,0.04,VWS V14.01,2013-01-06 22:05:00,
2013-01-06 14:10:00,48.2,23.2,30.02,NNW,340,2.2,2.7,37,0.00,,,0.04,VWS V14.01,2013-01-06 22:10:00,
2013-01-06 14:15:00,48.2,23.2,30.02,WNW,302,0.0,0.0,37,0.00,,,0.04,VWS V14.01,2013-01-06 22:15:00,
2013-01-06 14:20:00,48.0,23.0,30.02,North,4,0.0,2.7,37,0.00,,,0.04,VWS V14.01,2013-01-06 22:20:00,
2013-01-06 14:25:00,48.0,23.0,30.02,North,4,0.0,0.0,37,0.00,,,0.04,VWS V14.01,2013-01-06 22:25:00,
2013-01-06 14:30:00,48.2,23.2,30.02,North,4,0.0,0.0,37,0.00,,,0.04,VWS V14.01,2013-01-06 22:30:00,
2013-01-06 14:35:00,48.2,23.2,30.02,North,4,0.0,0.0,37,0.00,,,0.04,VWS V14.01,2013-01-06 22:35:00,
2013-01-06 14:40:00,48.4,23.3,30.02,North,4,3.6,3.6,37,0.00,,,0.04,VWS V14.01,2013-01-06 22:40:00,
2013-01-06 14:46:00,48.2,20.5,30.02,North,357,3.1,4.0,33,0.00,,,0.04,VWS V14.01,2013-01-06 22:46:00,
2013-01-06 14:51:00,48.2,21.9,30.02,North,357,0.0,0.0,35,0.00,,,0.04,VWS V14.01,2013-01-06 22:51:00,
2013-01-06 14:56:00,48.2,21.9,30.02,North,357,0.0,2.7,35,0.00,,,0.04,VWS V14.01,2013-01-06 22:56:00,
2013-01-06 15:01:00,48.4,22.0,30.02,North,357,2.2,3.6,35,0.00,,,0.04,VWS V14.01,2013-01-06 23:01:00,
2013-01-06 15:06:00,48.2,20.5,30.02,North,357,3.1,3.6,33,0.00,,,0.04,VWS V14.01,2013-01-06 23:06:00,
2013-01-06 15:11:00,48.2,19.0,30.02,North,357,0.0,4.0,31,0.00,,,0.04,VWS V14.01,2013-01-06 23:11:00,
2013-01-06 15:16:00,48.0,19.6,30.02,North,357,0.0,2.2,32,0.00,,,0.04,VWS V14.01,2013-01-06 23:16:00,
2013-01-06 15:21:00,48.2,19.0,30.02,North,357,3.1,3.1,31,0.00,,,0.04,VWS V14.01,2013-01-06 23:21:00,
2013-01-06 15:26:00,48.2,19.0,30.02,North,357,0.0,2.2,31,0.00,,,0.04,VWS V14.01,2013-01-06 23:26:00,
2013-01-06 15:31:00,48.2,19.0,30.02,North,357,0.0,0.0,31,0.00,,,0.04,VWS V14.01,2013-01-06 23:31:00,
2013-01-06 15:36:00,48.4,19.2,30.02,North,357,0.0,0.0,31,0.00,,,0.04,VWS V14.01,2013-01-06 23:36:00,
2013-01-06 15:41:00,48.6,19.3,30.02,North,357,0.0,0.0,31,0.00,,,0.04,VWS V14.01,2013-01-06 23:41:00,
2013-01-06 15:46:00,48.4,18.4,30.02,North,357,2.7,2.7,30,0.00,,,0.04,VWS V14.01,2013-01-06 23:46:00,
2013-01-06 15:51:00,48.4,18.4,30.02,North,357,2.7,2.7,30,0.00,,,0.04,VWS V14.01,2013-01-06 23:51:00,
2013-01-06 15:56:00,48.6,19.3,30.05,North,357,0.0,0.0,31,0.00,,,0.04,VWS V14.01,2013-01-06 23:56:00,
2013-01-06 16:01:00,48.6,19.3,30.05,North,357,2.2,2.7,31,0.00,,,0.04,VWS V14.01,2013-01-07 00:01:00,
2013-01-06 16:06:00,48.6,18.5,30.05,North,357,0.0,0.0,30,0.00,,,0.04,VWS V14.01,2013-01-07 00:06:00,
2013-01-06 16:11:00,48.4,18.4,30.05,North,357,3.1,3.1,30,0.00,,,0.04,VWS V14.01,2013-01-07 00:11:00,
2013-01-06 16:16:00,48.2,18.2,30.05,North,357,0.0,2.2,30,0.00,,,0.04,VWS V14.01,2013-01-07 00:16:00,
2013-01-06 16:21:00,48.0,18.8,30.05,North,357,0.0,0.0,31,0.00,,,0.04,VWS V14.01,2013-01-07 00:21:00,
2013-01-06 16:26:00,48.0,18.8,30.05,North,357,0.0,0.0,31,0.00,,,0.04,VWS V14.01,2013-01-07 00:26:00,
2013-01-06 16:31:00,47.8,19.4,30.05,North,357,0.0,0.0,32,0.00,,,0.04,VWS V14.01,2013-01-07 00:31:00,
2013-01-06 16:36:00,48.0,19.6,30.05,North,357,0.0,0.0,32,0.00,,,0.04,VWS V14.01,2013-01-07 00:36:00,
2013-01-06 16:41:00,48.2,20.5,30.05,North,357,0.0,0.0,33,0.00,,,0.04,VWS V14.01,2013-01-07 00:41:00,
2013-01-06 16:46:00,48.2,20.5,30.05,North,357,0.0,0.0,33,0.00,,,0.04,VWS V14.01,2013-01-07 00:46:00,
2013-01-06 16:51:00,48.2,20.5,30.05,North,357,0.0,0.0,33,0.00,,,0.04,VWS V14.01,2013-01-07 00:51:00,
2013-01-06 16:56:00,48.4,21.3,30.05,North,357,0.0,0.0,34,0.00,,,0.04,VWS V14.01,2013-01-07 00:56:00,
2013-01-06 17:01:00,48.4,21.3,30.05,North,357,0.0,0.0,34,0.00,,,0.04,VWS V14.01,2013-01-07 01:01:00,
2013-01-06 17:06:00,48.2,21.2,30.05,North,357,0.0,0.0,34,0.00,,,0.04,VWS V14.01,2013-01-07 01:06:00,
2013-01-06 17:11:00,48.0,21.0,30.05,North,357,0.0,0.0,34,0.00,,,0.04,VWS V14.01,2013-01-07 01:11:00,
2013-01-06 17:16:00,47.7,21.4,30.05,North,357,0.0,0.0,35,0.00,,,0.04,VWS V14.01,2013-01-07 01:16:00,
2013-01-06 17:21:00,47.3,21.7,30.05,North,357,0.0,0.0,36,0.00,,,0.04,VWS V14.01,2013-01-07 01:21:00,
2013-01-06 17:26:00,47.1,21.6,30.05,North,357,0.0,0.0,36,0.00,,,0.04,VWS V14.01,2013-01-07 01:26:00,
2013-01-06 17:31:00,46.8,21.9,30.05,North,357,0.0,0.0,37,0.00,,,0.04,VWS V14.01,2013-01-07 01:31:00,
2013-01-06 17:36:00,46.6,21.7,30.05,North,357,0.0,0.0,37,0.00,,,0.04,VWS V14.01,2013-01-07 01:36:00,
2013-01-06 17:41:00,46.2,21.4,30.05,North,357,0.0,0.0,37,0.00,,,0.04,VWS V14.01,2013-01-07 01:41:00,
2013-01-06 17:46:00,45.9,21.7,30.05,North,357,0.0,0.0,38,0.00,,,0.04,VWS V14.01,2013-01-07 01:46:00,
2013-01-06 17:51:00,45.3,21.2,30.05,North,357,0.0,0.0,38,0.00,,,0.04,VWS V14.01,2013-01-07 01:51:00,
2013-01-06 17:56:00,45.0,20.9,30.05,North,357,0.0,0.0,38,0.00,,,0.04,VWS V14.01,2013-01-07 01:56:00,
2013-01-06 18:01:00,44.6,20.6,30.05,North,357,0.0,0.0,38,0.00,,,0.04,VWS V14.01,2013-01-07 02:01:00,
2013-01-06 18:06:00,44.2,20.9,30.05,North,357,0.0,0.0,39,0.00,,,0.04,VWS V14.01,2013-01-07 02:06:00,
2013-01-06 18:11:00,44.1,20.7,30.05,North,357,0.0,0.0,39,0.00,,,0.04,VWS V14.01,2013-01-07 02:11:00,
2013-01-06 18:16:00,43.9,20.5,30.05,North,357,0.0,0.0,39,0.00,,,0.04,VWS V14.01,2013-01-07 02:16:00,
2013-01-06 18:21:00,44.1,21.3,30.05,North,357,0.0,0.0,40,0.00,,,0.04,VWS V14.01,2013-01-07 02:21:00,
2013-01-06 18:26:00,44.1,21.3,30.05,North,357,0.0,0.0,40,0.00,,,0.04,VWS V14.01,2013-01-07 02:26:00,
2013-01-06 18:31:00,43.9,21.1,30.05,North,357,0.0,0.0,40,0.00,,,0.04,VWS V14.01,2013-01-07 02:31:00,
2013-01-06 18:36:00,43.7,21.6,30.05,North,357,0.0,0.0,41,0.00,,,0.04,VWS V14.01,2013-01-07 02:36:00,
2013-01-06 18:41:00,43.7,21.6,30.05,North,357,0.0,0.0,41,0.00,,,0.04,VWS V14.01,2013-01-07 02:41:00,
2013-01-06 18:46:00,43.7,21.6,30.05,North,357,0.0,0.0,41,0.00,,,0.04,VWS V14.01,2013-01-07 02:46:00,
2013-01-06 18:51:00,43.5,22.0,30.05,North,357,0.0,0.0,42,0.00,,,0.04,VWS V14.01,2013-01-07 02:51:00,
2013-01-06 18:56:00,43.5,22.0,30.05,North,357,0.0,0.0,42,0.00,,,0.04,VWS V14.01,2013-01-07 02:56:00,
2013-01-06 19:01:00,43.5,22.0,30.05,North,357,0.0,0.0,42,0.00,,,0.04,VWS V14.01,2013-01-07 03:01:00,
2013-01-06 19:07:00,43.5,22.5,30.05,North,357,0.0,0.0,43,0.00,,,0.04,VWS V14.01,2013-01-07 03:07:00,
2013-01-06 19:12:00,43.5,22.5,30.05,North,357,0.0,0.0,43,0.00,,,0.04,VWS V14.01,2013-01-07 03:12:00,
2013-01-06 19:17:00,43.5,23.1,30.05,North,357,0.0,0.0,44,0.00,,,0.04,VWS V14.01,2013-01-07 03:17:00,
2013-01-06 19:22:00,43.7,23.8,30.05,North,357,0.0,0.0,45,0.00,,,0.04,VWS V14.01,2013-01-07 03:22:00,
2013-01-06 19:27:00,44.1,24.1,30.05,North,357,0.0,0.0,45,0.00,,,0.04,VWS V14.01,2013-01-07 03:27:00,
2013-01-06 19:32:00,44.6,25.1,30.05,North,357,0.0,0.0,46,0.00,,,0.04,VWS V14.01,2013-01-07 03:32:00,
2013-01-06 19:37:00,44.8,25.3,30.05,North,357,0.0,0.0,46,0.00,,,0.04,VWS V14.01,2013-01-07 03:37:00,
2013-01-06 19:42:00,45.0,25.4,30.05,North,357,0.0,0.0,46,0.00,,,0.04,VWS V14.01,2013-01-07 03:42:00,
2013-01-06 19:47:00,45.1,26.1,30.05,North,357,0.0,0.0,47,0.00,,,0.04,VWS V14.01,2013-01-07 03:47:00,
2013-01-06 19:52:00,45.0,26.0,30.05,North,357,0.0,0.0,47,0.00,,,0.04,VWS V14.01,2013-01-07 03:52:00,
2013-01-06 19:57:00,45.0,26.0,30.05,North,357,0.0,0.0,47,0.00,,,0.04,VWS V14.01,2013-01-07 03:57:00,
2013-01-06 20:02:00,44.8,25.8,30.05,North,357,0.0,0.0,47,0.00,,,0.04,VWS V14.01,2013-01-07 04:02:00,
2013-01-06 20:07:00,44.6,25.6,30.05,North,357,0.0,0.0,47,0.00,,,0.04,VWS V14.01,2013-01-07 04:07:00,
2013-01-06 20:12:00,44.4,26.0,30.05,North,357,0.0,0.0,48,0.00,,,0.04,VWS V14.01,2013-01-07 04:12:00,
2013-01-06 20:17:00,44.2,25.8,30.05,North,357,0.0,0.0,48,0.00,,,0.04,VWS V14.01,2013-01-07 04:17:00,
2013-01-06 20:22:00,44.2,25.8,30.05,North,357,0.0,0.0,48,0.00,,,0.04,VWS V14.01,2013-01-07 04:22:00,
2013-01-06 20:27:00,44.1,25.6,30.05,North,357,0.0,0.0,48,0.00,,,0.04,VWS V14.01,2013-01-07 04:27:00,
2013-01-06 20:32:00,44.1,25.6,30.05,North,357,0.0,0.0,48,0.00,,,0.04,VWS V14.01,2013-01-07 04:32:00,
2013-01-06 20:37:00,44.1,26.1,30.05,North,357,0.0,0.0,49,0.00,,,0.04,VWS V14.01,2013-01-07 04:37:00,
2013-01-06 20:42:00,44.1,26.1,30.08,North,357,0.0,0.0,49,0.00,,,0.04,VWS V14.01,2013-01-07 04:42:00,
2013-01-06 20:47:00,44.1,26.1,30.08,North,357,0.0,0.0,49,0.00,,,0.04,VWS V14.01,2013-01-07 04:47:00,
2013-01-06 20:52:00,44.2,26.3,30.08,North,357,0.0,0.0,49,0.00,,,0.04,VWS V14.01,2013-01-07 04:52:00,
2013-01-06 20:57:00,44.2,26.3,30.08,North,357,0.0,0.0,49,0.00,,,0.04,VWS V14.01,2013-01-07 04:57:00,
2013-01-06 21:00:00,44.2,26.8,30.08,North,357,0.0,0.0,50,0.00,,,0.04,VWS V14.01,2013-01-07 05:00:00,
2013-01-06 21:01:00,44.1,26.6,30.08,North,357,0.0,0.0,50,0.00,,,0.04,VWS V14.01,2013-01-07 05:01:00,
2013-01-06 21:06:00,44.1,26.6,30.08,North,357,0.0,0.0,50,0.00,,,0.04,VWS V14.01,2013-01-07 05:06:00,
2013-01-06 21:11:00,43.9,26.5,30.08,North,357,0.0,0.0,50,0.00,,,0.04,VWS V14.01,2013-01-07 05:11:00,
2013-01-06 21:16:00,43.9,26.5,30.08,North,357,0.0,0.0,50,0.00,,,0.04,VWS V14.01,2013-01-07 05:16:00,
2013-01-06 21:21:00,43.9,26.9,30.08,North,357,0.0,0.0,51,0.00,,,0.04,VWS V14.01,2013-01-07 05:21:00,
2013-01-06 21:26:00,44.1,27.1,30.08,North,357,0.0,0.0,51,0.00,,,0.04,VWS V14.01,2013-01-07 05:26:00,
2013-01-06 21:31:00,44.6,28.1,30.08,North,357,0.0,0.0,52,0.00,,,0.04,VWS V14.01,2013-01-07 05:31:00,
2013-01-06 21:36:00,44.6,27.6,30.08,North,357,0.0,0.0,51,0.00,,,0.04,VWS V14.01,2013-01-07 05:36:00,
2013-01-06 21:41:00,44.6,27.6,30.05,North,357,0.0,0.0,51,0.00,,,0.04,VWS V14.01,2013-01-07 05:41:00,
2013-01-06 21:46:00,44.1,27.1,30.05,North,357,0.0,0.0,51,0.00,,,0.04,VWS V14.01,2013-01-07 05:46:00,
2013-01-06 21:51:00,43.9,27.4,30.05,North,357,0.0,0.0,52,0.00,,,0.04,VWS V14.01,2013-01-07 05:51:00,
2013-01-06 21:56:00,43.9,27.4,30.08,North,357,0.0,0.0,52,0.00,,,0.04,VWS V14.01,2013-01-07 05:56:00,
2013-01-06 22:01:00,43.7,27.2,30.08,North,357,0.0,0.0,52,0.00,,,0.04,VWS V14.01,2013-01-07 06:01:00,
2013-01-06 22:06:00,43.7,27.2,30.08,North,357,0.0,0.0,52,0.00,,,0.04,VWS V14.01,2013-01-07 06:06:00,
2013-01-06 22:11:00,43.7,27.7,30.05,North,357,0.0,0.0,53,0.00,,,0.04,VWS V14.01,2013-01-07 06:11:00,
2013-01-06 22:16:00,43.7,27.7,30.05,North,357,0.0,0.0,53,0.00,,,0.04,VWS V14.01,2013-01-07 06:16:00,
2013-01-06 22:21:00,43.5,27.5,30.05,North,357,0.0,0.0,53,0.00,,,0.04,VWS V14.01,2013-01-07 06:21:00,
2013-01-06 22:26:00,43.9,27.9,30.05,North,357,0.0,0.0,53,0.00,,,0.04,VWS V14.01,2013-01-07 06:26:00,
2013-01-06 22:31:00,43.9,28.3,30.05,North,357,0.0,0.0,54,0.00,,,0.04,VWS V14.01,2013-01-07 06:31:00,
2013-01-06 22:36:00,44.1,28.5,30.05,North,357,0.0,0.0,54,0.00,,,0.04,VWS V14.01,2013-01-07 06:36:00,
2013-01-06 22:41:00,44.1,28.5,30.05,North,357,0.0,0.0,54,0.00,,,0.04,VWS V14.01,2013-01-07 06:41:00,
2013-01-06 22:46:00,44.2,28.7,30.05,North,357,0.0,0.0,54,0.00,,,0.04,VWS V14.01,2013-01-07 06:46:00,
2013-01-06 22:51:00,44.1,28.5,30.05,North,357,0.0,0.0,54,0.00,,,0.04,VWS V14.01,2013-01-07 06:51:00,
2013-01-06 22:56:00,43.9,28.3,30.08,North,357,0.0,0.0,54,0.00,,,0.04,VWS V14.01,2013-01-07 06:56:00,
2013-01-06 23:01:00,44.1,28.9,30.08,North,357,0.0,0.0,55,0.00,,,0.04,VWS V14.01,2013-01-07 07:01:00,
2013-01-06 23:06:00,44.1,28.9,30.08,North,357,0.0,0.0,55,0.00,,,0.04,VWS V14.01,2013-01-07 07:06:00,
2013-01-06 23:11:00,44.1,28.9,30.08,North,357,0.0,0.0,55,0.00,,,0.04,VWS V14.01,2013-01-07 07:11:00,
2013-01-06 23:16:00,44.2,29.5,30.08,North,357,4.0,4.0,56,0.00,,,0.04,VWS V14.01,2013-01-07 07:16:00,
2013-01-06 23:21:00,44.8,31.3,30.08,North,357,3.1,3.6,59,0.00,,,0.04,VWS V14.01,2013-01-07 07:21:00,
2013-01-06 23:26:00,45.1,32.1,30.05,North,357,2.7,3.6,60,0.00,,,0.04,VWS V14.01,2013-01-07 07:26:00,
2013-01-06 23:31:00,45.3,32.7,30.05,North,357,2.7,2.7,61,0.00,,,0.04,VWS V14.01,2013-01-07 07:31:00,
2013-01-06 23:36:00,45.3,32.7,30.05,North,357,2.7,4.0,61,0.00,,,0.04,VWS V14.01,2013-01-07 07:36:00,
2013-01-06 23:41:00,45.5,33.2,30.05,North,357,4.0,4.0,62,0.00,,,0.04,VWS V14.01,2013-01-07 07:41:00,
2013-01-06 23:46:00,45.5,33.7,30.05,North,357,2.2,3.1,63,0.00,,,0.04,VWS V14.01,2013-01-07 07:46:00,
2013-01-06 23:51:00,45.5,33.7,30.05,North,357,2.2,2.7,63,0.00,,,0.04,VWS V14.01,2013-01-07 07:51:00,
2013-01-06 23:56:00,45.3,33.5,30.05,North,357,0.0,0.0,63,0.00,,,0.04,VWS V14.01,2013-01-07 07:56:00,